createdAt,value
2022-11-27T00:03:06.000Z,3.22
2022-11-27T00:08:08.994Z,3.20
2022-11-27T00:13:11.846Z,3.16
2022-11-27T00:18:14.687Z,3.17
2022-11-27T00:23:17.578Z,3.17
2022-11-27T00:28:21.019Z,3.16
2022-11-27T00:33:23.971Z,3.14
2022-11-27T00:38:26.872Z,3.14
2022-11-27T00:43:29.728Z,3.13
2022-11-27T00:48:33.151Z,3.12
2022-11-27T00:53:36.161Z,3.12
2022-11-27T00:58:39.059Z,3.10
2022-11-27T01:03:41.937Z,3.12
2022-11-27T01:08:45.320Z,3.11
2022-11-27T01:13:49.165Z,3.13
2022-11-27T01:18:56.268Z,3.13
2022-11-27T01:24:00.611Z,3.10
2022-11-27T01:29:04.072Z,3.10
2022-11-27T01:34:12.934Z,3.08
2022-11-27T01:39:21.578Z,3.06
2022-11-27T01:44:24.410Z,3.06
2022-11-27T01:49:40.725Z,3.04
2022-11-27T01:55:18.954Z,3.03
2022-11-27T02:00:22.983Z,3.01
2022-11-27T02:05:28.686Z,2.97
2022-11-27T02:11:13.263Z,2.98
2022-11-27T02:16:53.856Z,2.99
2022-11-27T02:22:15.066Z,3.00
2022-11-27T02:27:42.122Z,3.02
2022-11-27T02:33:00.116Z,3.03
2022-11-27T02:38:17.413Z,3.01
2022-11-27T02:43:37.906Z,2.95
2022-11-27T02:48:54.852Z,2.93
2022-11-27T02:54:03.265Z,2.94
2022-11-27T02:59:12.725Z,2.94
2022-11-27T03:04:23.532Z,2.94
2022-11-27T03:09:39.429Z,2.95
2022-11-27T03:14:43.557Z,2.99
2022-11-27T03:19:53.178Z,3.03
2022-11-27T03:24:56.117Z,3.08
2022-11-27T03:30:03.923Z,3.14
2022-11-27T03:35:11.362Z,3.20
2022-11-27T03:40:15.905Z,3.28
2022-11-27T03:45:59.088Z,3.35
2022-11-27T03:51:15.348Z,3.41
2022-11-27T03:56:37.132Z,3.44
2022-11-27T04:01:40.968Z,3.46
2022-11-27T04:06:43.874Z,3.47
2022-11-27T04:11:46.897Z,3.49
2022-11-27T04:16:49.836Z,3.55
2022-11-27T04:21:52.721Z,3.57
2022-11-27T04:26:55.695Z,3.58
2022-11-27T04:31:58.605Z,3.62
2022-11-27T04:37:01.466Z,3.63
2022-11-27T04:42:04.545Z,3.65
2022-11-27T04:47:07.479Z,3.65
2022-11-27T04:52:11.101Z,3.64
2022-11-27T04:57:14.097Z,3.67
2022-11-27T05:02:17.256Z,3.71
2022-11-27T05:07:20.198Z,3.76
2022-11-27T05:12:23.286Z,3.79
2022-11-27T05:17:26.262Z,3.82
2022-11-27T05:22:29.031Z,3.84
2022-11-27T05:27:31.984Z,3.88
2022-11-27T05:32:35.351Z,3.88
2022-11-27T05:37:38.147Z,3.91
2022-11-27T05:42:41.020Z,3.92
2022-11-27T05:47:43.919Z,3.93
2022-11-27T05:52:46.879Z,3.93
2022-11-27T05:57:49.789Z,3.93
2022-11-27T06:02:53.249Z,3.92
2022-11-27T06:07:56.186Z,3.90
2022-11-27T06:12:59.304Z,3.89
2022-11-27T06:18:02.331Z,3.89
2022-11-27T06:23:05.280Z,3.88
2022-11-27T06:28:07.964Z,3.89
2022-11-27T06:33:10.829Z,3.89
2022-11-27T06:38:13.683Z,3.91
2022-11-27T06:43:16.559Z,3.95
2022-11-27T06:48:19.557Z,3.96
2022-11-27T06:53:22.446Z,3.98
2022-11-27T06:58:29.511Z,4.00
2022-11-27T07:03:34.246Z,4.03
2022-11-27T07:08:37.775Z,4.06
2022-11-27T07:13:41.286Z,4.09
2022-11-27T07:18:48.099Z,4.12
2022-11-27T07:23:51.332Z,4.13
2022-11-27T07:28:55.520Z,4.16
2022-11-27T07:33:59.195Z,4.23
2022-11-27T07:39:02.057Z,4.25
2022-11-27T07:44:05.077Z,4.25
2022-11-27T07:49:07.884Z,4.25
2022-11-27T07:54:10.822Z,4.27
2022-11-27T07:59:13.750Z,4.30
2022-11-27T08:04:16.996Z,4.34
2022-11-27T08:09:20.145Z,4.43
2022-11-27T08:14:23.043Z,4.46
2022-11-27T08:19:26.151Z,4.54
2022-11-27T08:24:29.212Z,4.56
2022-11-27T08:29:34.039Z,4.62
2022-11-27T08:34:37.860Z,4.69
2022-11-27T08:39:40.803Z,4.73
2022-11-27T08:44:44.401Z,4.79
2022-11-27T08:49:47.552Z,4.84
2022-11-27T08:54:56.072Z,4.93
2022-11-27T09:00:00.646Z,5.01
2022-11-27T09:05:06.249Z,5.09
2022-11-27T09:10:10.228Z,5.14
2022-11-27T09:15:14.136Z,5.18
2022-11-27T09:20:17.110Z,5.23
2022-11-27T09:25:19.920Z,5.30
2022-11-27T09:30:22.908Z,5.36
2022-11-27T09:35:26.534Z,5.43
2022-11-27T09:40:29.354Z,5.41
2022-11-27T09:45:33.331Z,5.38
2022-11-27T09:50:42.555Z,5.27
2022-11-27T09:55:50.103Z,5.19
2022-11-27T10:00:53.157Z,5.15
2022-11-27T10:06:30.150Z,5.09
2022-11-27T10:11:58.914Z,5.07
2022-11-27T10:18:12.340Z,5.05
2022-11-27T10:23:57.015Z,5.01
2022-11-27T10:29:30.663Z,4.99
2022-11-27T10:34:56.394Z,4.98
2022-11-27T10:40:15.889Z,4.96
2022-11-27T10:45:48.911Z,4.97
2022-11-27T10:50:52.136Z,5.01
2022-11-27T10:56:15.196Z,5.01
2022-11-27T11:01:21.257Z,5.06
2022-11-27T11:06:27.164Z,5.08
2022-11-27T11:11:30.454Z,5.10
2022-11-27T11:16:44.249Z,5.08
2022-11-27T11:21:47.213Z,5.07
2022-11-27T11:27:30.081Z,5.08
2022-11-27T11:32:40.559Z,5.09
2022-11-27T11:37:46.688Z,5.12
2022-11-27T11:43:27.747Z,5.15
2022-11-27T11:48:30.433Z,5.19
2022-11-27T11:53:41.116Z,5.19
2022-11-27T11:58:54.995Z,5.19
2022-11-27T12:04:48.761Z,5.29
2022-11-27T12:10:15.949Z,5.40
2022-11-27T12:15:47.161Z,5.52
2022-11-27T12:20:58.000Z,5.59
2022-11-27T12:26:09.958Z,5.62
2022-11-27T12:31:39.565Z,5.65
2022-11-27T12:37:27.018Z,5.66
2022-11-27T12:42:51.676Z,5.62
2022-11-27T12:48:12.421Z,5.59
2022-11-27T12:53:36.295Z,5.55
2022-11-27T12:58:48.597Z,5.48
2022-11-27T13:04:14.190Z,5.48
2022-11-27T13:09:52.091Z,5.40
2022-11-27T13:15:06.951Z,5.38
2022-11-27T13:20:20.801Z,5.35
2022-11-27T13:25:24.699Z,5.34
2022-11-27T13:30:34.805Z,5.29
2022-11-27T13:35:43.401Z,5.28
2022-11-27T13:40:55.013Z,5.20
2022-11-27T13:46:10.049Z,5.24
2022-11-27T13:51:31.510Z,5.23
2022-11-27T13:56:35.030Z,5.22
2022-11-27T14:01:39.177Z,5.19
2022-11-27T14:06:43.452Z,5.16
2022-11-27T14:11:48.183Z,5.15
2022-11-27T14:17:04.358Z,5.15
2022-11-27T14:23:11.254Z,5.14
2022-11-27T14:28:26.375Z,5.14
2022-11-27T14:33:47.381Z,5.12
2022-11-27T14:38:58.949Z,5.12
2022-11-27T14:44:03.999Z,5.10
2022-11-27T14:49:18.279Z,5.09
2022-11-27T14:54:30.648Z,5.05
2022-11-27T14:59:33.619Z,5.02
2022-11-27T15:04:44.263Z,5.01
2022-11-27T15:09:56.190Z,4.98
2022-11-27T15:15:15.718Z,4.97
2022-11-27T15:20:34.930Z,4.94
2022-11-27T15:25:46.023Z,4.91
2022-11-27T15:30:49.155Z,4.89
2022-11-27T15:35:54.028Z,4.86
2022-11-27T15:41:01.042Z,4.86
2022-11-27T15:46:08.433Z,4.81
2022-11-27T15:51:11.507Z,4.80
2022-11-27T15:56:16.085Z,4.78
2022-11-27T16:01:18.969Z,4.75
2022-11-27T16:06:24.664Z,4.75
2022-11-27T16:11:31.247Z,4.73
2022-11-27T16:16:35.431Z,4.73
2022-11-27T16:21:38.726Z,4.70
2022-11-27T16:26:43.124Z,4.69
2022-11-27T16:31:46.188Z,4.66
2022-11-27T16:36:49.087Z,4.65
2022-11-27T16:41:52.063Z,4.64
2022-11-27T16:46:54.941Z,4.64
2022-11-27T16:51:57.885Z,4.65
2022-11-27T16:57:00.835Z,4.64
2022-11-27T17:02:05.034Z,4.67
2022-11-27T17:07:08.403Z,4.62
2022-11-27T17:12:11.205Z,4.62
2022-11-27T17:17:14.150Z,4.64
2022-11-27T17:22:17.126Z,4.65
2022-11-27T17:27:20.048Z,4.66
2022-11-27T17:32:24.555Z,4.69
2022-11-27T17:37:27.475Z,4.70
2022-11-27T17:42:30.860Z,4.70
2022-11-27T17:47:34.239Z,4.68
2022-11-27T17:52:37.309Z,4.66
2022-11-27T17:57:40.264Z,4.60
2022-11-27T18:02:43.240Z,4.55
2022-11-27T18:07:46.247Z,4.53
2022-11-27T18:12:49.400Z,4.54
2022-11-27T18:17:52.263Z,4.54
2022-11-27T18:22:55.214Z,4.51
2022-11-27T18:27:58.736Z,4.50
2022-11-27T18:33:03.491Z,4.46
2022-11-27T18:38:06.338Z,4.40
2022-11-27T18:43:10.896Z,4.35
2022-11-27T18:48:13.836Z,4.31
2022-11-27T18:53:16.769Z,4.28
2022-11-27T18:58:19.704Z,4.27
2022-11-27T19:03:22.581Z,4.24
2022-11-27T19:08:25.580Z,4.23
2022-11-27T19:13:29.274Z,4.24
2022-11-27T19:18:32.197Z,4.18
2022-11-27T19:23:39.090Z,4.17
2022-11-27T19:28:43.502Z,4.11
2022-11-27T19:33:55.582Z,4.09
2022-11-27T19:39:02.381Z,4.07
2022-11-27T19:44:06.717Z,4.06
2022-11-27T19:49:17.584Z,4.06
2022-11-27T19:54:21.844Z,4.07
2022-11-27T19:59:26.252Z,4.07
2022-11-27T20:04:29.121Z,4.09
2022-11-27T20:09:32.024Z,4.10
2022-11-27T20:14:34.913Z,4.11
2022-11-27T20:19:37.164Z,4.12
2022-11-27T20:24:58.103Z,4.11
2022-11-27T20:30:08.778Z,4.12
2022-11-27T20:35:11.829Z,4.09
2022-11-27T20:40:14.952Z,4.06
2022-11-27T20:45:20.570Z,4.01
2022-11-27T20:50:24.222Z,3.98
2022-11-27T20:55:27.540Z,3.96
2022-11-27T21:00:31.167Z,3.97
2022-11-27T21:05:34.440Z,3.97
2022-11-27T21:10:37.577Z,3.97
2022-11-27T21:15:46.866Z,3.94
2022-11-27T21:20:49.738Z,3.95
2022-11-27T21:25:52.545Z,3.97
2022-11-27T21:30:55.156Z,3.97
2022-11-27T21:35:58.072Z,3.98
2022-11-27T21:41:00.950Z,3.96
2022-11-27T21:46:19.473Z,3.96
2022-11-27T21:51:23.126Z,3.92
2022-11-27T21:56:28.924Z,3.91
2022-11-27T22:01:31.916Z,3.90
2022-11-27T22:06:41.492Z,3.86
2022-11-27T22:11:46.487Z,3.87
2022-11-27T22:16:49.506Z,3.85
2022-11-27T22:21:52.537Z,3.84
2022-11-27T22:26:55.400Z,3.82
2022-11-27T22:31:58.351Z,3.83
2022-11-27T22:37:03.690Z,3.84
2022-11-27T22:42:06.602Z,3.85
2022-11-27T22:47:09.564Z,3.86
2022-11-27T22:52:13.069Z,3.90
2022-11-27T22:57:16.116Z,3.91
2022-11-27T23:02:19.029Z,3.91
2022-11-27T23:07:25.168Z,3.93
2022-11-27T23:12:28.376Z,3.93
2022-11-27T23:17:31.251Z,3.91
2022-11-27T23:22:34.057Z,3.92
2022-11-27T23:27:36.935Z,3.91
2022-11-27T23:32:39.765Z,3.91
2022-11-27T23:37:43.555Z,3.89
2022-11-27T23:42:46.447Z,3.86
2022-11-27T23:47:50.513Z,3.85
2022-11-27T23:52:55.056Z,3.81
2022-11-27T23:57:57.879Z,3.81
